Time,TemperatureF,DewpointF,PressureIn,WindDirection,WindDirectionDegrees,WindSpeedMPH,WindSpeedGustMPH,Humidity,HourlyPrecipIn,Conditions,Clouds,dailyrainin,SoftwareType,DateUTC
2013-05-08 00:01:00,59.7,51.8,29.97,North,0,0.0,0.0,75,0.00,RA,FEW,0.00,WeatherDisplay:10.37,2013-05-08 04:01:00,
2013-05-08 00:03:00,59.7,51.8,29.97,North,0,0.0,0.0,75,0.00,RA,FEW,0.00,WeatherDisplay:10.37,2013-05-08 04:03:00,
2013-05-08 00:04:00,59.7,51.8,29.97,North,0,0.0,0.0,75,0.00,RA,FEW,0.00,WeatherDisplay:10.37,2013-05-08 04:04:00,
2013-05-08 00:05:00,59.7,51.8,29.97,North,0,0.0,0.0,75,0.00,RA,FEW,0.00,WeatherDisplay:10.37,2013-05-08 04:05:00,
2013-05-08 00:07:00,59.7,52.1,29.97,North,0,0.0,0.0,76,0.00,RA,FEW,0.00,WeatherDisplay:10.37,2013-05-08 04:07:00,
2013-05-08 00:12:00,59.7,52.1,29.97,North,0,0.0,0.0,76,0.00,CLR,FEW,0.00,WeatherDisplay:10.37,2013-05-08 04:12:00,
2013-05-08 00:17:00,59.9,52.7,29.97,North,0,0.0,0.0,77,0.00,CLR,FEW,0.00,WeatherDisplay:10.37,2013-05-08 04:17:00,
2013-05-08 00:22:00,59.9,52.7,29.97,North,0,0.0,0.0,77,0.00,CLR,FEW,0.00,WeatherDisplay:10.37,2013-05-08 04:22:00,
2013-05-08 00:27:00,59.9,52.7,29.97,North,0,0.0,0.0,77,0.00,CLR,FEW,0.00,WeatherDisplay:10.37,2013-05-08 04:27:00,
2013-05-08 00:32:00,59.9,52.7,29.97,North,0,0.0,0.0,77,0.00,CLR,FEW,0.00,WeatherDisplay:10.37,2013-05-08 04:32:00,
2013-05-08 00:37:00,60.1,53.2,29.97,North,0,0.0,0.0,78,0.00,CLR,FEW,0.00,WeatherDisplay:10.37,2013-05-08 04:37:00,
2013-05-08 00:42:00,60.1,52.8,29.97,North,0,0.0,0.0,77,0.00,CLR,FEW,0.00,WeatherDisplay:10.37,2013-05-08 04:42:00,
2013-05-08 00:47:00,60.1,52.8,29.97,North,0,0.0,0.0,77,0.00,CLR,FEW,0.00,WeatherDisplay:10.37,2013-05-08 04:47:00,
2013-05-08 00:52:00,60.1,52.8,29.97,North,0,0.0,0.0,77,0.00,CLR,FEW,0.00,WeatherDisplay:10.37,2013-05-08 04:52:00,
2013-05-08 00:57:00,60.1,52.8,29.97,North,0,0.0,0.0,77,0.00,CLR,FEW,0.00,WeatherDisplay:10.37,2013-05-08 04:57:00,
2013-05-08 01:02:00,60.1,52.8,29.97,North,0,0.0,0.0,77,0.00,CLR,FEW,0.00,WeatherDisplay:10.37,2013-05-08 05:02:00,
2013-05-08 01:07:00,60.1,52.5,29.97,North,0,0.0,0.0,76,0.00,CLR,FEW,0.00,WeatherDisplay:10.37,2013-05-08 05:07:00,
2013-05-08 01:12:00,60.1,52.5,29.97,North,0,0.0,0.0,76,0.00,CLR,FEW,0.00,WeatherDisplay:10.37,2013-05-08 05:12:00,
2013-05-08 01:17:00,60.1,52.5,29.94,North,0,0.0,0.0,76,0.00,CLR,FEW,0.00,WeatherDisplay:10.37,2013-05-08 05:17:00,
2013-05-08 01:22:00,60.1,52.8,29.94,North,0,0.0,0.0,77,0.00,CLR,FEW,0.00,WeatherDisplay:10.37,2013-05-08 05:22:00,
2013-05-08 01:27:00,60.3,53.0,29.94,North,0,0.0,0.0,77,0.00,CLR,FEW,0.00,WeatherDisplay:10.37,2013-05-08 05:27:00,
2013-05-08 01:32:00,60.3,53.4,29.94,North,0,0.0,0.0,78,0.00,CLR,FEW,0.00,WeatherDisplay:10.37,2013-05-08 05:32:00,
2013-05-08 01:37:00,60.3,53.4,29.94,North,0,0.0,0.0,78,0.00,CLR,FEW,0.00,WeatherDisplay:10.37,2013-05-08 05:37:00,
2013-05-08 01:42:00,60.3,53.7,29.94,North,0,0.0,0.0,79,0.00,CLR,FEW,0.00,WeatherDisplay:10.37,2013-05-08 05:42:00,
2013-05-08 01:47:00,60.3,53.7,29.94,North,0,0.0,0.0,79,0.00,CLR,FEW,0.00,WeatherDisplay:10.37,2013-05-08 05:47:00,
2013-05-08 01:52:00,60.3,53.7,29.94,North,0,0.0,0.0,79,0.00,CLR,FEW,0.00,WeatherDisplay:10.37,2013-05-08 05:52:00,
2013-05-08 01:57:00,60.3,53.7,29.94,North,0,0.0,0.0,79,0.00,CLR,FEW,0.00,WeatherDisplay:10.37,2013-05-08 05:57:00,
2013-05-08 02:02:00,60.1,53.5,29.94,North,0,0.0,0.0,79,0.00,CLR,FEW,0.00,WeatherDisplay:10.37,2013-05-08 06:02:00,
2013-05-08 02:07:00,60.1,53.5,29.94,North,0,0.0,0.0,79,0.00,CLR,FEW,0.00,WeatherDisplay:10.37,2013-05-08 06:07:00,
2013-05-08 02:12:00,60.1,53.9,29.94,North,0,0.0,0.0,80,0.00,CLR,FEW,0.00,WeatherDisplay:10.37,2013-05-08 06:12:00,
2013-05-08 02:17:00,60.1,53.9,29.94,North,0,0.0,0.0,80,0.00,CLR,FEW,0.00,WeatherDisplay:10.37,2013-05-08 06:17:00,
2013-05-08 02:22:00,60.1,53.9,29.94,North,0,0.0,0.0,80,0.00,CLR,FEW,0.00,WeatherDisplay:10.37,2013-05-08 06:22:00,
2013-05-08 02:27:00,60.1,54.2,29.94,North,0,0.0,0.0,81,0.00,CLR,FEW,0.00,WeatherDisplay:10.37,2013-05-08 06:27:00,
2013-05-08 02:32:00,60.3,54.4,29.94,North,0,0.0,0.0,81,0.00,CLR,FEW,0.00,WeatherDisplay:10.37,2013-05-08 06:32:00,
2013-05-08 02:37:00,60.3,54.7,29.94,North,0,0.0,0.0,82,0.00,CLR,FEW,0.00,WeatherDisplay:10.37,2013-05-08 06:37:00,
2013-05-08 02:42:00,60.3,54.7,29.94,North,0,0.0,0.0,82,0.00,CLR,FEW,0.00,WeatherDisplay:10.37,2013-05-08 06:42:00,
2013-05-08 02:47:00,60.3,54.7,29.94,North,0,0.0,0.0,82,0.00,CLR,FEW,0.00,WeatherDisplay:10.37,2013-05-08 06:47:00,
2013-05-08 02:52:00,60.1,54.9,29.94,North,0,0.0,0.0,83,0.00,CLR,FEW,0.00,WeatherDisplay:10.37,2013-05-08 06:52:00,
2013-05-08 02:57:00,60.1,54.9,29.94,North,0,0.0,0.0,83,0.00,CLR,FEW,0.00,WeatherDisplay:10.37,2013-05-08 06:57:00,
2013-05-08 03:02:00,60.1,54.9,29.94,North,0,0.0,0.0,83,0.00,CLR,FEW,0.00,WeatherDisplay:10.37,2013-05-08 07:02:00,
2013-05-08 03:07:00,60.1,55.2,29.94,North,0,0.0,0.0,84,0.00,CLR,FEW,0.00,WeatherDisplay:10.37,2013-05-08 07:07:00,
2013-05-08 03:12:00,59.9,55.1,29.94,North,0,0.0,0.0,84,0.00,CLR,FEW,0.00,WeatherDisplay:10.37,2013-05-08 07:12:00,
2013-05-08 03:17:00,59.9,55.1,29.94,North,0,0.0,0.0,84,0.00,CLR,FEW,0.00,WeatherDisplay:10.37,2013-05-08 07:17:00,
2013-05-08 03:22:00,59.7,54.9,29.94,North,0,0.0,0.0,84,0.00,CLR,FEW,0.00,WeatherDisplay:10.37,2013-05-08 07:22:00,
2013-05-08 03:27:00,59.7,54.9,29.94,North,0,0.0,0.0,84,0.00,CLR,FEW,0.00,WeatherDisplay:10.37,2013-05-08 07:27:00,
2013-05-08 03:32:00,59.5,55.0,29.94,North,0,0.0,0.0,85,0.00,CLR,FEW,0.00,WeatherDisplay:10.37,2013-05-08 07:32:00,
2013-05-08 03:37:00,59.4,55.2,29.94,North,0,0.0,0.0,86,0.00,CLR,FEW,0.00,WeatherDisplay:10.37,2013-05-08 07:37:00,
2013-05-08 03:42:00,59.4,55.2,29.94,North,0,0.0,0.0,86,0.00,CLR,FEW,0.00,WeatherDisplay:10.37,2013-05-08 07:42:00,
2013-05-08 03:47:00,59.2,55.0,29.94,North,0,0.0,0.0,86,0.00,CLR,FEW,0.00,WeatherDisplay:10.37,2013-05-08 07:47:00,
2013-05-08 03:52:00,59.0,54.8,29.94,North,0,0.0,0.0,86,0.00,CLR,FEW,0.00,WeatherDisplay:10.37,2013-05-08 07:52:00,
2013-05-08 03:57:00,58.8,54.6,29.94,North,0,0.0,0.0,86,0.00,CLR,FEW,0.00,WeatherDisplay:10.37,2013-05-08 07:57:00,
2013-05-08 04:02:00,58.8,54.6,29.94,North,0,0.0,0.0,86,0.00,CLR,FEW,0.00,WeatherDisplay:10.37,2013-05-08 08:02:00,
2013-05-08 04:07:00,58.6,54.8,29.94,North,0,0.0,0.0,87,0.00,CLR,FEW,0.00,WeatherDisplay:10.37,2013-05-08 08:07:00,
2013-05-08 04:12:00,58.6,54.8,29.94,North,0,0.0,0.0,87,0.00,CLR,FEW,0.00,WeatherDisplay:10.37,2013-05-08 08:12:00,
2013-05-08 04:17:00,58.6,54.8,29.94,North,0,0.0,0.0,87,0.00,CLR,FEW,0.00,WeatherDisplay:10.37,2013-05-08 08:17:00,
2013-05-08 04:22:00,58.6,54.5,29.94,North,0,0.0,0.0,86,0.00,CLR,FEW,0.00,WeatherDisplay:10.37,2013-05-08 08:22:00,
2013-05-08 04:27:00,58.6,54.5,29.94,North,0,0.0,0.0,86,0.00,CLR,FEW,0.00,WeatherDisplay:10.37,2013-05-08 08:27:00,
2013-05-08 04:32:00,58.6,54.1,29.94,North,0,0.0,0.0,85,0.00,CLR,FEW,0.00,WeatherDisplay:10.37,2013-05-08 08:32:00,
2013-05-08 04:37:00,58.5,53.6,29.94,North,0,0.0,0.0,84,0.00,CLR,FEW,0.00,WeatherDisplay:10.37,2013-05-08 08:37:00,
2013-05-08 04:42:00,58.5,53.6,29.94,North,0,0.0,0.0,84,0.00,CLR,FEW,0.00,WeatherDisplay:10.37,2013-05-08 08:42:00,
2013-05-08 04:47:00,58.3,53.1,29.94,North,0,0.0,0.0,83,0.00,CLR,FEW,0.00,WeatherDisplay:10.37,2013-05-08 08:47:00,
2013-05-08 04:52:00,58.3,53.1,29.94,North,0,0.0,0.0,83,0.00,CLR,FEW,0.00,WeatherDisplay:10.37,2013-05-08 08:52:00,
2013-05-08 04:57:00,58.1,53.0,29.94,North,0,0.0,0.0,83,0.00,CLR,FEW,0.00,WeatherDisplay:10.37,2013-05-08 08:57:00,
2013-05-08 05:02:00,58.1,53.0,29.94,North,0,0.0,0.0,83,0.00,CLR,FEW,0.00,WeatherDisplay:10.37,2013-05-08 09:02:00,
2013-05-08 05:07:00,57.9,52.5,29.94,North,0,0.0,0.0,82,0.00,CLR,FEW,0.00,WeatherDisplay:10.37,2013-05-08 09:07:00,
2013-05-08 05:12:00,57.7,52.3,29.94,North,0,0.0,0.0,82,0.00,CLR,FEW,0.00,WeatherDisplay:10.37,2013-05-08 09:12:00,
2013-05-08 05:17:00,57.6,52.1,29.94,North,0,0.0,0.0,82,0.00,CLR,FEW,0.00,WeatherDisplay:10.37,2013-05-08 09:17:00,
2013-05-08 05:22:00,57.4,51.6,29.94,North,0,0.0,0.0,81,0.00,CLR,FEW,0.00,WeatherDisplay:10.37,2013-05-08 09:22:00,
2013-05-08 05:27:00,57.2,51.4,29.94,North,0,0.0,0.0,81,0.00,CLR,FEW,0.00,WeatherDisplay:10.37,2013-05-08 09:27:00,
2013-05-08 05:32:00,57.2,51.4,29.97,North,0,0.0,0.0,81,0.00,CLR,FEW,0.00,WeatherDisplay:10.37,2013-05-08 09:32:00,
2013-05-08 05:37:00,57.2,51.4,29.97,North,0,0.0,0.0,81,0.00,CLR,FEW,0.00,WeatherDisplay:10.37,2013-05-08 09:37:00,
2013-05-08 05:42:00,57.0,51.6,29.97,North,0,0.0,0.0,82,0.00,CLR,FEW,0.00,WeatherDisplay:10.37,2013-05-08 09:42:00,
2013-05-08 05:47:00,57.0,51.6,29.97,North,0,0.0,0.0,82,0.00,CLR,FEW,0.00,WeatherDisplay:10.37,2013-05-08 09:47:00,
2013-05-08 05:52:00,56.8,51.4,29.97,North,0,0.0,0.0,82,0.00,CLR,FEW,0.00,WeatherDisplay:10.37,2013-05-08 09:52:00,
2013-05-08 05:57:00,56.8,51.4,29.97,North,0,0.0,0.0,82,0.00,CLR,FEW,0.00,WeatherDisplay:10.37,2013-05-08 09:57:00,
2013-05-08 06:02:00,56.7,51.2,29.97,North,0,0.0,0.0,82,0.00,CLR,FEW,0.00,WeatherDisplay:10.37,2013-05-08 10:02:00,
2013-05-08 06:07:00,56.7,51.6,29.97,North,0,0.0,0.0,83,0.00,CLR,FEW,0.00,WeatherDisplay:10.37,2013-05-08 10:07:00,
2013-05-08 06:12:00,56.7,51.6,29.97,North,0,0.0,0.0,83,0.00,CLR,FEW,0.00,WeatherDisplay:10.37,2013-05-08 10:12:00,
2013-05-08 06:17:00,56.5,51.4,29.97,North,0,0.0,0.0,83,0.00,CLR,FEW,0.00,WeatherDisplay:10.37,2013-05-08 10:17:00,
2013-05-08 06:22:00,56.5,51.4,29.97,North,0,0.0,0.0,83,0.00,CLR,FEW,0.00,WeatherDisplay:10.37,2013-05-08 10:22:00,
2013-05-08 06:27:00,56.5,51.4,29.97,North,0,0.0,0.0,83,0.00,CLR,FEW,0.00,WeatherDisplay:10.37,2013-05-08 10:27:00,
2013-05-08 06:32:00,56.3,50.9,29.97,North,0,0.0,0.0,82,0.00,CLR,FEW,0.00,WeatherDisplay:10.37,2013-05-08 10:32:00,
2013-05-08 06:37:00,56.3,50.9,29.97,North,0,0.0,0.0,82,0.00,CLR,FEW,0.00,WeatherDisplay:10.37,2013-05-08 10:37:00,
2013-05-08 06:42:00,56.3,50.9,29.97,North,0,0.0,0.0,82,0.00,CLR,FEW,0.00,WeatherDisplay:10.37,2013-05-08 10:42:00,
2013-05-08 06:47:00,56.3,50.9,29.97,North,0,0.0,0.0,82,0.00,CLR,FEW,0.00,WeatherDisplay:10.37,2013-05-08 10:47:00,
2013-05-08 09:28:00,68.4,41.1,30.03,North,0,0.0,0.0,37,0.00,CLR,FEW,0.20,WeatherDisplay:10.37,2013-05-08 13:28:00,
2013-05-08 09:33:00,68.4,41.1,30.03,North,0,0.0,0.0,37,0.00,CLR,FEW,0.20,WeatherDisplay:10.37,2013-05-08 13:33:00,
2013-05-08 09:38:00,68.2,40.9,30.03,North,0,0.0,0.0,37,0.00,CLR,FEW,0.20,WeatherDisplay:10.37,2013-05-08 13:38:00,
2013-05-08 09:43:00,68.2,40.2,30.03,North,0,0.0,0.0,36,0.20,RA,FEW,0.20,WeatherDisplay:10.37,2013-05-08 13:43:00,
2013-05-08 09:48:00,68.4,41.1,30.03,North,0,0.0,0.0,37,0.20,RA,FEW,0.20,WeatherDisplay:10.37,2013-05-08 13:48:00,
2013-05-08 09:53:00,68.7,40.7,30.03,North,0,0.0,0.0,36,0.20,CLR,FEW,0.20,WeatherDisplay:10.37,2013-05-08 13:53:00,
2013-05-08 09:58:00,68.9,40.8,30.03,North,0,0.0,0.0,36,0.20,CLR,FEW,0.20,WeatherDisplay:10.37,2013-05-08 13:58:00,
2013-05-08 10:03:00,69.3,40.4,30.03,North,0,0.0,0.0,35,0.20,CLR,FEW,0.20,WeatherDisplay:10.37,2013-05-08 14:03:00,
2013-05-08 10:08:00,69.1,40.3,30.03,North,0,0.0,0.0,35,0.20,CLR,FEW,0.20,WeatherDisplay:10.37,2013-05-08 14:08:00,
2013-05-08 10:13:00,69.1,40.3,30.03,North,0,0.0,0.0,35,0.20,CLR,FEW,0.20,WeatherDisplay:10.37,2013-05-08 14:13:00,
2013-05-08 10:18:00,69.3,39.7,30.03,North,0,0.0,0.0,34,0.20,CLR,FEW,0.20,WeatherDisplay:10.37,2013-05-08 14:18:00,
2013-05-08 10:23:00,69.4,39.8,30.03,North,0,0.0,0.0,34,0.20,CLR,FEW,0.20,WeatherDisplay:10.37,2013-05-08 14:23:00,
2013-05-08 10:28:00,69.6,40.0,30.03,North,0,0.0,0.0,34,0.20,CLR,FEW,0.20,WeatherDisplay:10.37,2013-05-08 14:28:00,
2013-05-08 10:33:00,69.6,40.0,30.03,North,0,0.0,0.0,34,0.20,CLR,FEW,0.20,WeatherDisplay:10.37,2013-05-08 14:33:00,
2013-05-08 10:38:00,69.4,39.1,30.03,North,0,0.0,0.0,33,0.20,CLR,FEW,0.20,WeatherDisplay:10.37,2013-05-08 14:38:00,
2013-05-08 10:43:00,69.3,39.7,30.03,North,0,0.0,0.0,34,0.00,CLR,FEW,0.20,WeatherDisplay:10.37,2013-05-08 14:43:00,
2013-05-08 10:48:00,69.1,40.3,30.03,North,0,0.0,0.0,35,0.00,CLR,FEW,0.20,WeatherDisplay:10.37,2013-05-08 14:48:00,
2013-05-08 10:53:00,69.4,40.6,30.03,North,0,0.0,0.0,35,0.00,CLR,FEW,0.20,WeatherDisplay:10.37,2013-05-08 14:53:00,
2013-05-08 10:58:00,69.6,40.7,30.03,North,0,0.0,0.0,35,0.00,CLR,FEW,0.20,WeatherDisplay:10.37,2013-05-08 14:58:00,
2013-05-08 11:03:00,69.8,39.4,30.03,North,0,0.0,0.0,33,0.00,CLR,FEW,0.20,WeatherDisplay:10.37,2013-05-08 15:03:00,
2013-05-08 11:08:00,70.0,40.3,30.03,North,0,0.0,0.0,34,0.00,CLR,FEW,0.20,WeatherDisplay:10.37,2013-05-08 15:08:00,
2013-05-08 11:13:00,70.2,40.5,30.03,North,0,0.0,0.0,34,0.00,CLR,FEW,0.20,WeatherDisplay:10.37,2013-05-08 15:13:00,
2013-05-08 11:18:00,70.2,40.5,30.03,North,0,0.0,0.0,34,0.00,CLR,FEW,0.20,WeatherDisplay:10.37,2013-05-08 15:18:00,
2013-05-08 11:23:00,70.0,40.3,30.03,North,0,0.0,0.0,34,0.00,CLR,FEW,0.20,WeatherDisplay:10.37,2013-05-08 15:23:00,
2013-05-08 11:28:00,70.0,39.5,30.03,North,0,0.0,0.0,33,0.00,CLR,FEW,0.20,WeatherDisplay:10.37,2013-05-08 15:28:00,
2013-05-08 11:33:00,70.3,40.6,30.03,North,0,0.0,0.0,34,0.00,CLR,FEW,0.20,WeatherDisplay:10.37,2013-05-08 15:33:00,
2013-05-08 11:39:00,70.5,40.8,30.03,North,0,0.0,0.0,34,0.00,CLR,FEW,0.20,WeatherDisplay:10.37,2013-05-08 15:39:00,
2013-05-08 11:44:00,70.9,41.9,30.03,North,0,0.0,0.0,35,0.00,CLR,FEW,0.20,WeatherDisplay:10.37,2013-05-08 15:44:00,
2013-05-08 11:49:00,71.2,40.6,30.03,North,0,0.0,0.0,33,0.00,CLR,FEW,0.20,WeatherDisplay:10.37,2013-05-08 15:49:00,
2013-05-08 11:54:00,71.6,42.5,30.03,North,0,0.0,0.0,35,0.00,CLR,FEW,0.20,WeatherDisplay:10.37,2013-05-08 15:54:00,
2013-05-08 11:59:00,71.8,42.6,30.03,North,0,0.0,0.0,35,0.00,CLR,FEW,0.20,WeatherDisplay:10.37,2013-05-08 15:59:00,
2013-05-08 12:04:00,72.0,42.8,30.03,North,0,0.0,0.0,35,0.00,CLR,FEW,0.20,WeatherDisplay:10.37,2013-05-08 16:04:00,
2013-05-08 12:09:00,72.3,43.9,30.03,North,0,0.0,0.0,36,0.00,CLR,FEW,0.20,WeatherDisplay:10.37,2013-05-08 16:09:00,
2013-05-08 12:14:00,72.1,43.0,30.03,North,0,0.0,0.0,35,0.00,CLR,FEW,0.20,WeatherDisplay:10.37,2013-05-08 16:14:00,
2013-05-08 12:19:00,71.8,42.6,30.03,North,0,0.0,0.0,35,0.00,CLR,FEW,0.20,WeatherDisplay:10.37,2013-05-08 16:19:00,
2013-05-08 12:24:00,71.8,44.1,30.03,North,0,0.0,0.0,37,0.00,CLR,FEW,0.20,WeatherDisplay:10.37,2013-05-08 16:24:00,
2013-05-08 12:29:00,71.6,43.9,30.03,North,0,0.0,0.0,37,0.00,CLR,FEW,0.20,WeatherDisplay:10.37,2013-05-08 16:29:00,
2013-05-08 12:34:00,71.6,44.6,30.03,North,0,0.0,0.0,38,0.00,CLR,FEW,0.20,WeatherDisplay:10.37,2013-05-08 16:34:00,
2013-05-08 12:39:00,71.8,44.8,30.03,North,0,0.0,0.0,38,0.00,CLR,FEW,0.20,WeatherDisplay:10.37,2013-05-08 16:39:00,
2013-05-08 12:44:00,72.0,44.3,30.03,North,0,0.0,0.0,37,0.00,CLR,FEW,0.20,WeatherDisplay:10.37,2013-05-08 16:44:00,
2013-05-08 12:49:00,72.0,44.3,30.03,North,0,0.0,0.0,37,0.00,CLR,FEW,0.20,WeatherDisplay:10.37,2013-05-08 16:49:00,
2013-05-08 12:54:00,71.8,44.8,30.03,North,0,0.0,0.0,38,0.00,CLR,FEW,0.20,WeatherDisplay:10.37,2013-05-08 16:54:00,
2013-05-08 12:59:00,71.6,43.9,30.03,North,0,0.0,0.0,37,0.00,CLR,FEW,0.20,WeatherDisplay:10.37,2013-05-08 16:59:00,
2013-05-08 13:04:00,71.4,43.1,30.00,North,0,0.0,0.0,36,0.00,CLR,FEW,0.20,WeatherDisplay:10.37,2013-05-08 17:04:00,
2013-05-08 13:09:00,71.4,45.8,30.00,North,0,0.0,0.0,40,0.00,CLR,FEW,0.20,WeatherDisplay:10.37,2013-05-08 17:09:00,
2013-05-08 13:14:00,71.6,44.6,30.00,North,0,0.0,0.0,38,0.00,CLR,FEW,0.20,WeatherDisplay:10.37,2013-05-08 17:14:00,
2013-05-08 13:19:00,71.6,45.3,30.00,North,0,0.0,0.0,39,0.00,CLR,FEW,0.20,WeatherDisplay:10.37,2013-05-08 17:19:00,
2013-05-08 13:24:00,72.1,45.8,30.00,North,0,0.0,0.0,39,0.00,CLR,FEW,0.20,WeatherDisplay:10.37,2013-05-08 17:24:00,
2013-05-08 13:29:00,72.1,44.4,30.00,North,0,0.0,0.0,37,0.00,CLR,FEW,0.20,WeatherDisplay:10.37,2013-05-08 17:29:00,
2013-05-08 13:34:00,72.1,45.8,30.00,North,0,0.0,0.0,39,0.00,CLR,FEW,0.20,WeatherDisplay:10.37,2013-05-08 17:34:00,
2013-05-08 13:39:00,72.0,45.0,30.00,North,0,0.0,0.0,38,0.00,CLR,FEW,0.20,WeatherDisplay:10.37,2013-05-08 17:39:00,
2013-05-08 13:44:00,72.0,45.6,30.00,North,0,0.0,0.0,39,0.00,CLR,FEW,0.20,WeatherDisplay:10.37,2013-05-08 17:44:00,
2013-05-08 13:49:00,72.3,45.3,29.97,North,0,0.0,0.0,38,0.00,CLR,FEW,0.20,WeatherDisplay:10.37,2013-05-08 17:49:00,
2013-05-08 13:54:00,72.9,45.8,29.97,North,0,0.0,0.0,38,0.00,CLR,FEW,0.20,WeatherDisplay:10.37,2013-05-08 17:54:00,
2013-05-08 13:59:00,73.6,45.0,29.97,North,0,0.0,0.0,36,0.00,CLR,FEW,0.20,WeatherDisplay:10.37,2013-05-08 17:59:00,
2013-05-08 14:04:00,74.1,45.5,30.00,North,0,0.0,0.0,36,0.00,CLR,FEW,0.20,WeatherDisplay:10.37,2013-05-08 18:04:00,
2013-05-08 14:09:00,74.3,44.9,30.00,North,0,0.0,0.0,35,0.00,CLR,FEW,0.20,WeatherDisplay:10.37,2013-05-08 18:09:00,
2013-05-08 14:14:00,74.3,43.3,30.00,North,0,0.0,0.0,33,0.00,CLR,FEW,0.20,WeatherDisplay:10.37,2013-05-08 18:14:00,
2013-05-08 14:19:00,73.6,44.2,30.00,North,0,0.0,0.0,35,0.00,CLR,FEW,0.20,WeatherDisplay:10.37,2013-05-08 18:19:00,
2013-05-08 14:24:00,73.9,45.3,30.00,North,0,0.0,0.0,36,0.00,CLR,FEW,0.20,WeatherDisplay:10.37,2013-05-08 18:24:00,
2013-05-08 14:29:00,73.6,44.2,30.00,North,0,0.0,0.0,35,0.00,CLR,FEW,0.20,WeatherDisplay:10.37,2013-05-08 18:29:00,
2013-05-08 14:34:00,72.9,47.1,30.00,North,0,0.0,0.0,40,0.00,CLR,FEW,0.20,WeatherDisplay:10.37,2013-05-08 18:34:00,
2013-05-08 14:39:00,73.4,46.9,30.00,North,0,0.0,0.0,39,0.00,CLR,FEW,0.20,WeatherDisplay:10.37,2013-05-08 18:39:00,
2013-05-08 14:44:00,73.6,44.2,30.00,North,0,0.0,0.0,35,0.00,CLR,FEW,0.20,WeatherDisplay:10.37,2013-05-08 18:44:00,
2013-05-08 14:49:00,72.9,45.1,29.97,North,0,0.0,0.0,37,0.00,CLR,FEW,0.20,WeatherDisplay:10.37,2013-05-08 18:49:00,
2013-05-08 14:54:00,73.4,46.9,29.97,North,0,0.0,0.0,39,0.00,CLR,FEW,0.20,WeatherDisplay:10.37,2013-05-08 18:54:00,
2013-05-08 14:59:00,73.4,44.8,29.97,North,0,0.0,0.0,36,0.00,CLR,FEW,0.20,WeatherDisplay:10.37,2013-05-08 18:59:00,
2013-05-08 15:04:00,72.3,44.6,29.97,North,0,0.0,0.0,37,0.00,CLR,FEW,0.20,WeatherDisplay:10.37,2013-05-08 19:04:00,
2013-05-08 15:09:00,71.2,44.3,29.97,North,0,0.0,0.0,38,0.00,CLR,FEW,0.20,WeatherDisplay:10.37,2013-05-08 19:09:00,
2013-05-08 15:14:00,70.5,45.0,29.97,North,0,0.0,0.0,40,0.00,CLR,FEW,0.20,WeatherDisplay:10.37,2013-05-08 19:14:00,
2013-05-08 15:19:00,70.2,45.4,29.97,North,0,0.0,0.0,41,0.00,CLR,FEW,0.20,WeatherDisplay:10.37,2013-05-08 19:19:00,
2013-05-08 15:24:00,69.8,45.7,29.97,North,0,0.0,0.0,42,0.00,CLR,FEW,0.20,WeatherDisplay:10.37,2013-05-08 19:24:00,
2013-05-08 15:29:00,70.7,46.5,29.97,North,0,0.0,0.0,42,0.00,CLR,FEW,0.20,WeatherDisplay:10.37,2013-05-08 19:29:00,
2013-05-08 15:34:00,70.9,45.3,29.97,North,0,0.0,0.0,40,0.00,CLR,FEW,0.20,WeatherDisplay:10.37,2013-05-08 19:34:00,
2013-05-08 15:39:00,70.3,44.9,29.97,North,0,0.0,0.0,40,0.00,CLR,FEW,0.20,WeatherDisplay:10.37,2013-05-08 19:39:00,
2013-05-08 15:44:00,69.8,45.0,29.97,North,0,0.0,0.0,41,0.00,CLR,FEW,0.20,WeatherDisplay:10.37,2013-05-08 19:44:00,
2013-05-08 15:49:00,69.6,45.5,29.97,North,0,0.0,0.0,42,0.00,CLR,FEW,0.20,WeatherDisplay:10.37,2013-05-08 19:49:00,
2013-05-08 15:54:00,69.6,45.5,29.97,North,0,0.0,0.0,42,0.00,CLR,FEW,0.20,WeatherDisplay:10.37,2013-05-08 19:54:00,
2013-05-08 15:59:00,69.3,45.8,29.97,North,0,0.0,0.0,43,0.00,CLR,FEW,0.20,WeatherDisplay:10.37,2013-05-08 19:59:00,
2013-05-08 16:04:00,69.6,46.1,29.97,North,0,0.0,0.0,43,0.00,CLR,FEW,0.20,WeatherDisplay:10.37,2013-05-08 20:04:00,
2013-05-08 16:09:00,69.6,46.1,29.97,North,0,0.0,0.0,43,0.00,CLR,FEW,0.20,WeatherDisplay:10.37,2013-05-08 20:09:00,
2013-05-08 16:14:00,70.5,47.5,29.97,North,0,0.0,0.0,44,0.00,CLR,FEW,0.20,WeatherDisplay:10.37,2013-05-08 20:14:00,
2013-05-08 16:18:00,71.1,46.8,29.94,North,0,0.0,0.0,42,0.00,CLR,FEW,0.20,WeatherDisplay:10.37,2013-05-08 20:18:00,
2013-05-08 16:23:00,71.4,46.5,29.94,North,0,0.0,0.0,41,0.00,CLR,FEW,0.20,WeatherDisplay:10.37,2013-05-08 20:23:00,
2013-05-08 16:28:00,71.4,46.5,29.94,North,0,0.0,0.0,41,0.00,CLR,FEW,0.20,WeatherDisplay:10.37,2013-05-08 20:28:00,
2013-05-08 16:33:00,71.4,45.8,29.97,North,0,0.0,0.0,40,0.00,CLR,FEW,0.20,WeatherDisplay:10.37,2013-05-08 20:33:00,
2013-05-08 16:38:00,70.7,45.8,29.97,North,0,0.0,0.0,41,0.00,CLR,FEW,0.20,WeatherDisplay:10.37,2013-05-08 20:38:00,
2013-05-08 16:43:00,70.5,46.9,29.97,North,0,0.0,0.0,43,0.00,CLR,FEW,0.20,WeatherDisplay:10.37,2013-05-08 20:43:00,
2013-05-08 16:48:00,71.2,46.3,29.97,North,0,0.0,0.0,41,0.00,CLR,FEW,0.20,WeatherDisplay:10.37,2013-05-08 20:48:00,
2013-05-08 16:53:00,71.1,45.5,29.97,North,0,0.0,0.0,40,0.00,CLR,FEW,0.20,WeatherDisplay:10.37,2013-05-08 20:53:00,
2013-05-08 16:58:00,70.5,46.3,29.97,North,0,0.0,0.0,42,0.00,CLR,FEW,0.20,WeatherDisplay:10.37,2013-05-08 20:58:00,
2013-05-08 17:03:00,70.7,47.1,29.97,North,0,0.0,0.0,43,0.00,CLR,FEW,0.20,WeatherDisplay:10.37,2013-05-08 21:03:00,
2013-05-08 17:08:00,71.2,46.3,29.97,North,0,0.0,0.0,41,0.00,CLR,FEW,0.20,WeatherDisplay:10.37,2013-05-08 21:08:00,
2013-05-08 17:13:00,70.9,45.3,29.97,North,0,0.0,0.0,40,0.00,CLR,FEW,0.20,WeatherDisplay:10.37,2013-05-08 21:13:00,
2013-05-08 17:18:00,71.1,46.8,29.97,North,0,0.0,0.0,42,0.00,CLR,FEW,0.20,WeatherDisplay:10.37,2013-05-08 21:18:00,
2013-05-08 17:23:00,70.7,45.8,29.97,North,0,0.0,0.0,41,0.00,CLR,FEW,0.20,WeatherDisplay:10.37,2013-05-08 21:23:00,
2013-05-08 17:28:00,70.2,46.6,29.97,North,0,0.0,0.0,43,0.00,CLR,FEW,0.20,WeatherDisplay:10.37,2013-05-08 21:28:00,
2013-05-08 17:33:00,70.7,47.1,29.97,North,0,0.0,0.0,43,0.00,CLR,FEW,0.20,WeatherDisplay:10.37,2013-05-08 21:33:00,
2013-05-08 17:38:00,71.2,47.0,29.97,North,0,0.0,0.0,42,0.00,CLR,FEW,0.20,WeatherDisplay:10.37,2013-05-08 21:38:00,
2013-05-08 17:43:00,71.4,47.1,29.97,North,0,0.0,0.0,42,0.00,CLR,FEW,0.20,WeatherDisplay:10.37,2013-05-08 21:43:00,
2013-05-08 17:48:00,71.4,46.5,29.97,North,0,0.0,0.0,41,0.00,CLR,FEW,0.20,WeatherDisplay:10.37,2013-05-08 21:48:00,
2013-05-08 17:53:00,71.2,45.7,29.97,North,0,0.0,0.0,40,0.00,CLR,FEW,0.20,WeatherDisplay:10.37,2013-05-08 21:53:00,
2013-05-08 17:58:00,70.5,45.7,29.97,North,0,0.0,0.0,41,0.00,CLR,FEW,0.20,WeatherDisplay:10.37,2013-05-08 21:58:00,
2013-05-08 18:03:00,70.2,46.6,29.97,North,0,0.0,0.0,43,0.00,CLR,FEW,0.20,WeatherDisplay:10.37,2013-05-08 22:03:00,
2013-05-08 18:08:00,70.5,46.9,29.97,North,0,0.0,0.0,43,0.00,CLR,FEW,0.20,WeatherDisplay:10.37,2013-05-08 22:08:00,
2013-05-08 18:13:00,70.3,46.2,29.97,North,0,0.0,0.0,42,0.00,CLR,FEW,0.20,WeatherDisplay:10.37,2013-05-08 22:13:00,
2013-05-08 18:18:00,69.8,45.7,29.97,North,0,0.0,0.0,42,0.00,CLR,FEW,0.20,WeatherDisplay:10.37,2013-05-08 22:18:00,
2013-05-08 18:23:00,69.4,46.6,29.97,North,0,0.0,0.0,44,0.00,CLR,FEW,0.20,WeatherDisplay:10.37,2013-05-08 22:23:00,
2013-05-08 18:28:00,69.4,47.2,29.97,North,0,0.0,0.0,45,0.00,CLR,FEW,0.20,WeatherDisplay:10.37,2013-05-08 22:28:00,
2013-05-08 18:33:00,69.6,47.3,29.97,North,0,0.0,0.0,45,0.00,CLR,FEW,0.20,WeatherDisplay:10.37,2013-05-08 22:33:00,
2013-05-08 18:38:00,69.6,46.7,29.97,North,0,0.0,0.0,44,0.00,CLR,FEW,0.20,WeatherDisplay:10.37,2013-05-08 22:38:00,
2013-05-08 18:43:00,69.6,46.7,29.97,North,0,0.0,0.0,44,0.00,CLR,FEW,0.20,WeatherDisplay:10.37,2013-05-08 22:43:00,
2013-05-08 18:48:00,69.6,46.7,29.97,North,0,0.0,0.0,44,0.00,CLR,FEW,0.20,WeatherDisplay:10.37,2013-05-08 22:48:00,
2013-05-08 18:53:00,69.6,46.7,29.97,North,0,0.0,0.0,44,0.00,CLR,FEW,0.20,WeatherDisplay:10.37,2013-05-08 22:53:00,
2013-05-08 18:58:00,69.4,46.6,29.97,North,0,0.0,0.0,44,0.00,CLR,FEW,0.20,WeatherDisplay:10.37,2013-05-08 22:58:00,
2013-05-08 19:03:00,69.3,47.0,29.97,North,0,0.0,0.0,45,0.00,CLR,FEW,0.20,WeatherDisplay:10.37,2013-05-08 23:03:00,
2013-05-08 19:08:00,69.1,47.4,29.97,North,0,0.0,0.0,46,0.00,CLR,FEW,0.20,WeatherDisplay:10.37,2013-05-08 23:08:00,
2013-05-08 19:13:00,68.9,47.3,29.97,North,0,0.0,0.0,46,0.00,CLR,FEW,0.20,WeatherDisplay:10.37,2013-05-08 23:13:00,
2013-05-08 19:18:00,68.7,48.2,29.97,North,0,0.0,0.0,48,0.00,CLR,FEW,0.20,WeatherDisplay:10.37,2013-05-08 23:18:00,
2013-05-08 19:23:00,68.5,48.1,29.97,North,0,0.0,0.0,48,0.00,CLR,FEW,0.20,WeatherDisplay:10.37,2013-05-08 23:23:00,
2013-05-08 19:28:00,68.5,47.5,29.97,North,0,0.0,0.0,47,0.00,CLR,FEW,0.20,WeatherDisplay:10.37,2013-05-08 23:28:00,
2013-05-08 19:33:00,68.5,47.5,29.97,North,0,0.0,0.0,47,0.00,CLR,FEW,0.20,WeatherDisplay:10.37,2013-05-08 23:33:00,
2013-05-08 19:38:00,68.4,47.9,29.97,North,0,0.0,0.0,48,0.00,CLR,FEW,0.20,WeatherDisplay:10.37,2013-05-08 23:38:00,
2013-05-08 19:43:00,68.4,48.5,29.97,North,0,0.0,0.0,49,0.00,CLR,FEW,0.20,WeatherDisplay:10.37,2013-05-08 23:43:00,
2013-05-08 19:48:00,68.2,48.8,29.97,North,0,0.0,0.0,50,0.00,CLR,FEW,0.20,WeatherDisplay:10.37,2013-05-08 23:48:00,
2013-05-08 19:53:00,68.0,48.7,29.97,North,0,0.0,0.0,50,0.00,CLR,FEW,0.20,WeatherDisplay:10.37,2013-05-08 23:53:00,
2013-05-08 19:58:00,68.0,48.7,29.97,North,0,0.0,0.0,50,0.00,CLR,FEW,0.20,WeatherDisplay:10.37,2013-05-08 23:58:00,
2013-05-08 20:03:00,68.0,48.7,29.97,North,0,0.0,0.0,50,0.00,CLR,FEW,0.20,WeatherDisplay:10.37,2013-05-09 00:03:00,
2013-05-08 20:08:00,67.8,49.0,29.97,North,0,0.0,0.0,51,0.00,CLR,FEW,0.20,WeatherDisplay:10.37,2013-05-09 00:08:00,
2013-05-08 20:13:00,67.8,49.0,29.97,North,0,0.0,0.0,51,0.00,CLR,FEW,0.20,WeatherDisplay:10.37,2013-05-09 00:13:00,
2013-05-08 20:18:00,67.8,49.0,29.97,North,0,0.0,0.0,51,0.00,CLR,FEW,0.20,WeatherDisplay:10.37,2013-05-09 00:18:00,
2013-05-08 20:23:00,67.8,49.0,29.97,North,0,0.0,0.0,51,0.00,CLR,FEW,0.20,WeatherDisplay:10.37,2013-05-09 00:23:00,
2013-05-08 20:28:00,67.8,48.5,29.97,North,0,0.0,0.0,50,0.00,CLR,FEW,0.20,WeatherDisplay:10.37,2013-05-09 00:28:00,
2013-05-08 20:33:00,67.8,48.5,29.97,North,0,0.0,0.0,50,0.00,CLR,FEW,0.20,WeatherDisplay:10.37,2013-05-09 00:33:00,
2013-05-08 20:38:00,67.8,48.0,29.97,North,0,0.0,0.0,49,0.00,CLR,FEW,0.20,WeatherDisplay:10.37,2013-05-09 00:38:00,
2013-05-08 20:43:00,67.8,48.5,29.97,North,0,0.0,0.0,50,0.00,CLR,FEW,0.20,WeatherDisplay:10.37,2013-05-09 00:43:00,
2013-05-08 20:48:00,67.6,48.3,30.00,North,0,0.0,0.0,50,0.00,CLR,FEW,0.20,WeatherDisplay:10.37,2013-05-09 00:48:00,
2013-05-08 20:53:00,67.6,47.8,30.00,North,0,0.0,0.0,49,0.00,CLR,FEW,0.20,WeatherDisplay:10.37,2013-05-09 00:53:00,
2013-05-08 20:58:00,67.6,46.7,30.00,North,0,0.0,0.0,47,0.00,CLR,FEW,0.20,WeatherDisplay:10.37,2013-05-09 00:58:00,
2013-05-08 21:03:00,67.6,46.7,30.00,North,0,0.0,0.0,47,0.00,CLR,FEW,0.20,WeatherDisplay:10.37,2013-05-09 01:03:00,
2013-05-08 21:08:00,67.6,46.7,30.00,North,0,0.0,0.0,47,0.00,CLR,FEW,0.20,WeatherDisplay:10.37,2013-05-09 01:08:00,
2013-05-08 21:13:00,67.6,47.2,30.00,North,0,0.0,0.0,48,0.00,CLR,FEW,0.20,WeatherDisplay:10.37,2013-05-09 01:13:00,
2013-05-08 21:18:00,67.5,47.1,30.00,North,0,0.0,0.0,48,0.00,CLR,FEW,0.20,WeatherDisplay:10.37,2013-05-09 01:18:00,
2013-05-08 21:23:00,67.5,47.6,30.00,North,0,0.0,0.0,49,0.00,CLR,FEW,0.20,WeatherDisplay:10.37,2013-05-09 01:23:00,
2013-05-08 21:28:00,67.5,48.2,30.00,North,0,0.0,0.0,50,0.00,CLR,FEW,0.20,WeatherDisplay:10.37,2013-05-09 01:28:00,
2013-05-08 21:33:00,67.3,48.5,30.00,North,0,0.0,0.0,51,0.00,CLR,FEW,0.20,WeatherDisplay:10.37,2013-05-09 01:33:00,
2013-05-08 21:38:00,67.3,49.0,30.00,North,0,0.0,0.0,52,0.00,CLR,FEW,0.20,WeatherDisplay:10.37,2013-05-09 01:38:00,
2013-05-08 21:43:00,67.3,49.6,30.00,North,0,0.0,0.0,53,0.00,CLR,FEW,0.20,WeatherDisplay:10.37,2013-05-09 01:43:00,
2013-05-08 21:48:00,67.5,49.7,30.00,North,0,0.0,0.0,53,0.00,CLR,FEW,0.20,WeatherDisplay:10.37,2013-05-09 01:48:00,
2013-05-08 21:53:00,67.5,49.7,30.00,North,0,0.0,0.0,53,0.00,CLR,FEW,0.20,WeatherDisplay:10.37,2013-05-09 01:53:00,
2013-05-08 21:58:00,67.5,49.7,30.00,North,0,0.0,0.0,53,0.00,CLR,FEW,0.20,WeatherDisplay:10.37,2013-05-09 01:58:00,
2013-05-08 22:03:00,67.5,50.2,30.00,North,0,0.0,0.0,54,0.00,CLR,FEW,0.20,WeatherDisplay:10.37,2013-05-09 02:03:00,
2013-05-08 22:08:00,67.5,50.2,30.00,North,0,0.0,0.0,54,0.00,CLR,FEW,0.20,WeatherDisplay:10.37,2013-05-09 02:08:00,
2013-05-08 22:13:00,67.5,50.2,30.00,North,0,0.0,0.0,54,0.00,CLR,FEW,0.20,WeatherDisplay:10.37,2013-05-09 02:13:00,
2013-05-08 22:18:00,67.5,49.7,30.03,North,0,0.0,0.0,53,0.00,CLR,FEW,0.20,WeatherDisplay:10.37,2013-05-09 02:18:00,
2013-05-08 22:23:00,67.5,49.7,30.03,North,0,0.0,0.0,53,0.00,CLR,FEW,0.20,WeatherDisplay:10.37,2013-05-09 02:23:00,
2013-05-08 22:28:00,67.5,49.7,30.03,North,0,0.0,0.0,53,0.00,CLR,FEW,0.20,WeatherDisplay:10.37,2013-05-09 02:28:00,
2013-05-08 22:33:00,67.5,49.7,30.03,North,0,0.0,0.0,53,0.00,CLR,FEW,0.20,WeatherDisplay:10.37,2013-05-09 02:33:00,
2013-05-08 22:38:00,67.5,49.7,30.03,North,0,0.0,0.0,53,0.00,CLR,FEW,0.20,WeatherDisplay:10.37,2013-05-09 02:38:00,
2013-05-08 22:43:00,67.5,49.7,30.03,North,0,0.0,0.0,53,0.00,CLR,FEW,0.20,WeatherDisplay:10.37,2013-05-09 02:43:00,
2013-05-08 22:48:00,67.3,49.6,30.03,North,0,0.0,0.0,53,0.00,CLR,FEW,0.20,WeatherDisplay:10.37,2013-05-09 02:48:00,
2013-05-08 22:53:00,67.3,49.6,30.03,North,0,0.0,0.0,53,0.00,CLR,FEW,0.20,WeatherDisplay:10.37,2013-05-09 02:53:00,
2013-05-08 22:58:00,67.3,49.0,30.03,North,0,0.0,0.0,52,0.00,CLR,FEW,0.20,WeatherDisplay:10.37,2013-05-09 02:58:00,
2013-05-08 23:03:00,67.3,49.0,30.03,North,0,0.0,0.0,52,0.00,CLR,FEW,0.20,WeatherDisplay:10.37,2013-05-09 03:03:00,
2013-05-08 23:08:00,67.3,49.6,30.03,North,0,0.0,0.0,53,0.00,CLR,FEW,0.20,WeatherDisplay:10.37,2013-05-09 03:08:00,
2013-05-08 23:13:00,67.1,49.4,30.03,North,0,0.0,0.0,53,0.00,CLR,FEW,0.20,WeatherDisplay:10.37,2013-05-09 03:13:00,
2013-05-08 23:18:00,67.1,49.4,30.03,North,0,0.0,0.0,53,0.00,CLR,FEW,0.20,WeatherDisplay:10.37,2013-05-09 03:18:00,
2013-05-08 23:23:00,67.1,49.4,30.03,North,0,0.0,0.0,53,0.00,CLR,FEW,0.20,WeatherDisplay:10.37,2013-05-09 03:23:00,
2013-05-08 23:28:00,66.9,49.7,30.03,North,0,0.0,0.0,54,0.00,CLR,FEW,0.20,WeatherDisplay:10.37,2013-05-09 03:28:00,
2013-05-08 23:33:00,66.9,49.7,30.03,North,0,0.0,0.0,54,0.00,CLR,FEW,0.20,WeatherDisplay:10.37,2013-05-09 03:33:00,
2013-05-08 23:38:00,66.7,49.6,30.03,North,0,0.0,0.0,54,0.00,CLR,FEW,0.20,WeatherDisplay:10.37,2013-05-09 03:38:00,
2013-05-08 23:43:00,66.6,49.4,30.03,North,0,0.0,0.0,54,0.00,CLR,FEW,0.20,WeatherDisplay:10.37,2013-05-09 03:43:00,
2013-05-08 23:48:00,66.4,49.7,30.03,North,0,0.0,0.0,55,0.00,CLR,FEW,0.20,WeatherDisplay:10.37,2013-05-09 03:48:00,
2013-05-08 23:53:00,66.4,50.2,30.03,North,0,0.0,0.0,56,0.00,CLR,FEW,0.20,WeatherDisplay:10.37,2013-05-09 03:53:00,
2013-05-08 23:58:00,66.2,50.5,30.03,North,0,0.0,0.0,57,0.00,CLR,FEW,0.20,WeatherDisplay:10.37,2013-05-09 03:58:00,